M/T Vemaoil Xi — 9HWD7 — position and weather

sailwx.info

Track history (hours):
 
Tides and Currents Weather Stations Pressure Air Temp Water Temp Dewpoint Dewpoint Depression Visibility Wind Speed Wind Dir Waves Ship Positions

M/T Vemaoil Xi

Last reported at 2017-May-25 17:50 UTC. Time now 2017-May-25 18:04 UTC.
Position N 35°51' E 014°36'.

Length 105 m; draft 4 m.

Type: Tanker. MMSI: 215631000.

Date/timePositionNaut miles runAvg speedWind from/ knotsBaromVisibWave heightAir tempDewpointWater temp
2017-May-25 17:50N 35°51' E 014°36'0 0.0
2017-May-25 17:29N 35°51' E 014°36'0 0.0
2017-May-25 16:53N 35°51' E 014°36'0 0.0
2017-May-25 15:59N 35°51' E 014°36'0 0.0
2017-May-25 15:17N 35°51' E 014°36'0 0.0
2017-May-25 13:53N 35°51' E 014°36'0 0.0
2017-May-25 13:26N 35°51' E 014°36'0 0.0
2017-May-25 12:59N 35°51' E 014°36'0 0.2
2017-May-25 12:29N 35°51' E 014°36'0 0.0
2017-May-25 11:59N 35°51' E 014°36'0 0.0
2017-May-25 11:29N 35°51' E 014°36'0 0.0
2017-May-25 10:56N 35°51' E 014°36'0 0.0
2017-May-25 10:29N 35°51' E 014°36'0 0.0
2017-May-25 09:59N 35°51' E 014°36'0 0.0
2017-May-25 09:29N 35°51' E 014°36'0 0.0
2017-May-25 08:59N 35°51' E 014°36'0 0.0
2017-May-25 08:29N 35°51' E 014°36'0 0.0
2017-May-25 07:59N 35°51' E 014°36'0 0.0
2017-May-25 07:29N 35°51' E 014°36'0 0.0
2017-May-25 06:59N 35°51' E 014°36'0 0.0
2017-May-25 06:29N 35°51' E 014°36'0 0.0
2017-May-25 05:56N 35°51' E 014°36'0 0.0
2017-May-25 05:29N 35°51' E 014°36'0 0.1
2017-May-25 04:56N 35°51' E 014°36'0 0.0
2017-May-25 04:29N 35°51' E 014°36'0 0.0
2017-May-25 03:38N 35°51' E 014°36'0 0.0
2017-May-25 02:44N 35°51' E 014°36'0 0.0
2017-May-25 02:23N 35°51' E 014°36'0 0.0
2017-May-25 01:35N 35°51' E 014°36'0 0.1
2017-May-25 01:29N 35°51' E 014°36'0 0.0
2017-May-25 00:59N 35°51' E 014°36'0 0.0
2017-May-25 00:29N 35°51' E 014°36'0 0.0
2017-May-24 23:59N 35°51' E 014°36'0 0.1
2017-May-24 23:11N 35°51' E 014°36'0 1.4
2017-May-24 22:56N 35°50' E 014°36'0 0.0
2017-May-24 22:23N 35°50' E 014°36'0 0.0
2017-May-24 21:59N 35°50' E 014°36'0 0.0
2017-May-24 21:26N 35°50' E 014°36'0 0.0
2017-May-24 20:32N 35°50' E 014°36'0 0.1
2017-May-24 19:52N 35°50' E 014°36'2 5.6
2017-May-24 19:30N 35°52' E 014°35'4 0.5
2017-May-24 12:12N 35°54' E 014°31'1 5.8
2017-May-24 12:01N 35°54' E 014°32'1 1.7
2017-May-24 11:30N 35°54' E 014°33'1 2.3
2017-May-24 11:00N 35°53' E 014°35'3 2.4
2017-May-24 09:48N 35°50' E 014°36'0 0.1
2017-May-24 09:09N 35°51' E 014°36'0 0.0
2017-May-24 09:00N 35°51' E 014°36'0 0.1
2017-May-24 08:15N 35°51' E 014°36'0 0.1
2017-May-24 07:27N 35°51' E 014°36'3 5.6
2017-May-24 07:00N 35°50' E 014°39'3 6.7
2017-May-24 06:30N 35°51' E 014°43'4 6.9
2017-May-24 05:52N 35°54' E 014°47'1 2.1
2017-May-24 05:30N 35°55' E 014°48'0 0.1
2017-May-24 04:42N 35°55' E 014°48'0 0.1
2017-May-24 04:27N 35°55' E 014°48'0 0.0
2017-May-24 03:03N 35°55' E 014°48'0 0.1
2017-May-24 02:54N 35°55' E 014°48'0 0.0
2017-May-24 02:00N 35°55' E 014°48'0 0.0
2017-May-24 01:27N 35°55' E 014°48'0 0.0
2017-May-24 00:57N 35°55' E 014°48'1 0.6
2017-May-23 23:22N 35°54' E 014°47'2 1.0
2017-May-23 21:49N 35°54' E 014°45'0 0.7
2017-May-23 21:29N 35°54' E 014°44'3 6.3
2017-May-23 21:00N 35°51' E 014°42'4 7.0
2017-May-23 20:30N 35°50' E 014°39'5 0.6
2017-May-23 12:34N 35°49' E 014°33'0 0.0
2017-May-23 12:13N 35°49' E 014°33'0 0.0
2017-May-23 11:58N 35°49' E 014°33'0 0.0
2017-May-23 11:28N 35°49' E 014°33'0 0.0
2017-May-23 10:58N 35°49' E 014°33'0 0.0
2017-May-23 08:55N 35°49' E 014°33'0 0.0
2017-May-23 08:25N 35°49' E 014°33'0 0.0
2017-May-23 07:58N 35°49' E 014°33'0 0.0
2017-May-23 07:04N 35°49' E 014°33'0 0.0
2017-May-23 06:34N 35°49' E 014°33'0 0.1
2017-May-23 06:28N 35°49' E 014°33'0 0.3
2017-May-23 05:28N 35°49' E 014°33'1 1.7
2017-May-23 04:49N 35°49' E 014°34'0 0.6
2017-May-23 04:31N 35°49' E 014°34'0 0.3
2017-May-23 04:00N 35°49' E 014°34'1 1.4
2017-May-23 03:29N 35°49' E 014°35'0 0.0
2017-May-23 02:59N 35°49' E 014°35'0 0.1
2017-May-23 02:29N 35°49' E 014°35'0 0.0
2017-May-23 01:59N 35°49' E 014°35'0 0.0
2017-May-23 01:26N 35°49' E 014°35'0 0.0
2017-May-23 00:47N 35°49' E 014°35'0 0.0
2017-May-23 00:29N 35°49' E 014°35'0 0.1
2017-May-22 23:59N 35°49' E 014°35'0 0.0
2017-May-22 23:26N 35°49' E 014°35'0 0.0
2017-May-22 22:56N 35°49' E 014°35'0 0.0
2017-May-22 22:29N 35°49' E 014°35'0 0.0
2017-May-22 21:53N 35°49' E 014°35'0 0.0
2017-May-22 21:29N 35°49' E 014°35'0 0.0
2017-May-22 20:59N 35°49' E 014°35'0 0.0
2017-May-22 20:29N 35°49' E 014°35'0 0.0
2017-May-22 19:59N 35°49' E 014°35'1 2.8
2017-May-22 19:30N 35°49' E 014°36'4 8.4
2017-May-22 19:00N 35°50' E 014°41'4 6.2
2017-May-22 18:26N 35°53' E 014°45'0 0.0
2017-May-22 17:59N 35°53' E 014°45'0 0.0
2017-May-22 17:29N 35°53' E 014°45'0 0.0
2017-May-22 16:59N 35°53' E 014°45'0 0.3
2017-May-22 16:30N 35°53' E 014°45'1 2.2
2017-May-22 16:00N 35°52' E 014°44'4 7.6
2017-May-22 15:30N 35°50' E 014°40'4 7.6
2017-May-22 15:00N 35°49' E 014°36'1 0.6
2017-May-22 13:59N 35°49' E 014°35'0 0.0
2017-May-22 13:29N 35°49' E 014°35'0 0.0
2017-May-22 12:02N 35°49' E 014°35'0 0.0
2017-May-22 11:44N 35°49' E 014°35'1 0.0
2017-May-21 21:14N 35°49' E 014°36'1 0.3
2017-May-21 18:06N 35°49' E 014°37'0 0.0
2017-May-21 15:48N 35°49' E 014°37'0 0.0
2017-May-21 15:27N 35°49' E 014°37'0 0.0
2017-May-21 12:15N 35°49' E 014°37'0 0.0
2017-May-21 11:51N 35°49' E 014°37'0 0.1
2017-May-21 11:25N 35°49' E 014°37'2 4.2
2017-May-21 11:00N 35°49' E 014°39'3 6.4
2017-May-21 10:30N 35°51' E 014°42'2 0.3
2017-May-21 02:42N 35°52' E 014°45'1 1.0
2017-May-21 01:42N 35°51' E 014°45'1 2.5
2017-May-21 01:24N 35°51' E 014°45'3 4.6
2017-May-21 00:51N 35°50' E 014°42'6 1.0
2017-May-20 19:05N 35°49' E 014°35'0 0.2
2017-May-20 18:59N 35°49' E 014°35'0 0.0
2017-May-20 18:23N 35°49' E 014°35'0 0.0
2017-May-20 17:59N 35°49' E 014°35'0 0.0
2017-May-20 17:29N 35°49' E 014°35'0 0.0
2017-May-20 16:59N 35°49' E 014°35'0 0.0
2017-May-20 16:11N 35°49' E 014°35'0 0.1
2017-May-20 15:56N 35°49' E 014°35'0 0.0
2017-May-20 15:05N 35°49' E 014°35'0 0.0
2017-May-20 14:59N 35°49' E 014°35'0 0.0
2017-May-20 14:29N 35°49' E 014°35'0 0.0
2017-May-20 13:15N 35°49' E 014°35'0 1.1
2017-May-20 12:48N 35°49' E 014°36'0 0.0
2017-May-20 12:27N 35°49' E 014°36'0 0.0
2017-May-20 11:57N 35°49' E 014°36'0 0.0
2017-May-20 08:57N 35°49' E 014°36'1 0.0
2017-May-19 19:54N 35°49' E 014°35'0 0.0
2017-May-19 17:06N 35°49' E 014°35'0 2.8
2017-May-19 17:00N 35°49' E 014°35'2 0.3
2017-May-19 10:10N 35°49' E 014°32'0 0.1
2017-May-19 09:58N 35°49' E 014°32'0 0.0
2017-May-18 16:53N 35°49' E 014°33'2 2.0
2017-May-18 16:07N 35°49' E 014°35'0 0.8
2017-May-18 15:43N 35°49' E 014°35'0 1.1
2017-May-18 15:28N 35°49' E 014°36'1 2.7
2017-May-18 14:56N 35°49' E 014°37'4 4.7
2017-May-18 14:00N 35°51' E 014°42'2 3.8
2017-May-18 13:26N 35°52' E 014°45'0 0.0
2017-May-18 12:56N 35°52' E 014°45'0 0.0
2017-May-18 12:29N 35°52' E 014°45'0 0.0
2017-May-18 11:53N 35°52' E 014°45'1 2.2
2017-May-18 11:30N 35°51' E 014°44'4 7.5
2017-May-18 10:56N 35°50' E 014°39'3 7.7
2017-May-18 10:30N 35°49' E 014°35'0 0.5
2017-May-18 09:56N 35°49' E 014°35'0 0.0
2017-May-18 09:26N 35°49' E 014°35'0 0.0
2017-May-18 08:53N 35°49' E 014°35'0 0.0
2017-May-18 08:23N 35°49' E 014°35'0 0.0
2017-May-18 07:11N 35°49' E 014°35'0 0.0
2017-May-18 06:59N 35°49' E 014°35'0 0.0
2017-May-18 06:29N 35°49' E 014°35'0 0.2
2017-May-18 05:57N 35°49' E 014°35'2 5.2
2017-May-18 05:30N 35°50' E 014°38'4 7.3
2017-May-18 05:00N 35°51' E 014°42'4 7.5
2017-May-18 04:30N 35°53' E 014°46'1 1.9
2017-May-18 04:00N 35°53' E 014°47'0 0.1
2017-May-18 03:30N 35°53' E 014°47'0 0.1
2017-May-18 03:00N 35°53' E 014°47'0 0.2
2017-May-18 02:30N 35°54' E 014°47'0 0.0
2017-May-18 02:00N 35°54' E 014°47'0 0.0
2017-May-18 01:30N 35°54' E 014°47'0 0.0
2017-May-18 00:57N 35°54' E 014°47'0 0.0
2017-May-18 00:30N 35°54' E 014°47'1 1.1
2017-May-17 23:59N 35°53' E 014°46'0 0.1
2017-May-17 23:23N 35°53' E 014°46'0 0.0
2017-May-17 22:59N 35°53' E 014°46'0 0.0
2017-May-17 22:29N 35°53' E 014°46'0 0.1
2017-May-17 21:59N 35°53' E 014°46'0 0.0
2017-May-17 21:29N 35°53' E 014°46'0 0.0
2017-May-17 20:59N 35°53' E 014°46'0 0.0
2017-May-17 20:26N 35°53' E 014°46'0 0.0
2017-May-17 19:59N 35°53' E 014°46'0 0.0
2017-May-17 19:29N 35°53' E 014°46'0 0.0
2017-May-17 18:59N 35°53' E 014°46'0 0.0
2017-May-17 18:29N 35°53' E 014°46'0 0.0
2017-May-17 17:59N 35°53' E 014°46'0 0.1
2017-May-17 17:29N 35°53' E 014°46'0 0.2
2017-May-17 16:50N 35°53' E 014°46'0 0.0
2017-May-17 16:29N 35°53' E 014°46'0 0.0
2017-May-17 14:50N 35°53' E 014°46'0 0.0
2017-May-17 14:29N 35°53' E 014°46'2 1.9
2017-May-17 13:29N 35°54' E 014°48'0 0.0
2017-May-17 12:59N 35°54' E 014°48'0 0.0
2017-May-17 12:29N 35°54' E 014°48'0 0.0
2017-May-17 11:53N 35°54' E 014°48'0 0.0
2017-May-17 11:29N 35°54' E 014°48'0 0.1
2017-May-17 10:20N 35°54' E 014°48'0 0.1
2017-May-17 09:59N 35°54' E 014°48'0 0.0
2017-May-17 09:29N 35°54' E 014°48'0 0.0
2017-May-17 08:59N 35°55' E 014°48'0 0.0
2017-May-17 08:23N 35°55' E 014°48'0 0.0
2017-May-17 07:59N 35°55' E 014°48'0 0.0
2017-May-17 06:50N 35°55' E 014°48'0 0.0
2017-May-17 06:17N 35°55' E 014°48'0 0.0
2017-May-17 04:28N 35°54' E 014°48'2 3.4
2017-May-17 04:00N 35°55' E 014°46'3 5.5
2017-May-17 03:30N 35°54' E 014°43'4 7.3
2017-May-17 03:00N 35°54' E 014°38'4 7.3
2017-May-17 02:30N 35°54' E 014°34'2 0.2
2017-May-16 19:07N 35°54' E 014°32'1 6.8
2017-May-16 19:00N 35°54' E 014°33'1 2.3
2017-May-16 18:30N 35°54' E 014°34'3 6.0
2017-May-16 18:00N 35°51' E 014°36'4 0.2
2017-May-16 00:17N 35°49' E 014°32'0 0.0
2017-May-15 23:59N 35°49' E 014°32'0 0.0
2017-May-15 22:47N 35°49' E 014°32'0 0.0
2017-May-15 22:29N 35°49' E 014°32'0 0.0
2017-May-15 21:56N 35°49' E 014°32'0 0.0
2017-May-15 21:29N 35°49' E 014°32'2 4.6
2017-May-15 21:00N 35°49' E 014°35'4 7.6
2017-May-15 20:31N 35°50' E 014°39'4 7.6
2017-May-15 20:00N 35°52' E 014°43'2 2.6
2017-May-15 19:25N 35°53' E 014°45'0 0.0
2017-May-15 18:58N 35°53' E 014°45'0 0.2
2017-May-15 18:28N 35°53' E 014°45'1 2.2
2017-May-15 18:00N 35°52' E 014°44'  
Track history (hours):
 
Tides and Currents Weather Stations Pressure Air Temp Water Temp Dewpoint Dewpoint Depression Visibility Wind Speed Wind Dir Waves Ship Positions

M/T Vemaoil Xi

Last reported at 2017-May-25 17:50 UTC. Time now 2017-May-25 18:04 UTC.
Position N 35°51' E 014°36'.

Length 105 m; draft 4 m.

Type: Tanker. MMSI: 215631000.

Date/timePositionNaut miles runAvg speedWind from/ knotsBaromVisibWave heightAir tempDewpointWater temp
2017-May-25 17:50N 35°51' E 014°36'0 0.0
2017-May-25 17:29N 35°51' E 014°36'0 0.0
2017-May-25 16:53N 35°51' E 014°36'0 0.0
2017-May-25 15:59N 35°51' E 014°36'0 0.0
2017-May-25 15:17N 35°51' E 014°36'0 0.0
2017-May-25 13:53N 35°51' E 014°36'0 0.0
2017-May-25 13:26N 35°51' E 014°36'0 0.0
2017-May-25 12:59N 35°51' E 014°36'0 0.2
2017-May-25 12:29N 35°51' E 014°36'0 0.0
2017-May-25 11:59N 35°51' E 014°36'0 0.0
2017-May-25 11:29N 35°51' E 014°36'0 0.0
2017-May-25 10:56N 35°51' E 014°36'0 0.0
2017-May-25 10:29N 35°51' E 014°36'0 0.0
2017-May-25 09:59N 35°51' E 014°36'0 0.0
2017-May-25 09:29N 35°51' E 014°36'0 0.0
2017-May-25 08:59N 35°51' E 014°36'0 0.0
2017-May-25 08:29N 35°51' E 014°36'0 0.0
2017-May-25 07:59N 35°51' E 014°36'0 0.0
2017-May-25 07:29N 35°51' E 014°36'0 0.0
2017-May-25 06:59N 35°51' E 014°36'0 0.0
2017-May-25 06:29N 35°51' E 014°36'0 0.0
2017-May-25 05:56N 35°51' E 014°36'0 0.0
2017-May-25 05:29N 35°51' E 014°36'0 0.1
2017-May-25 04:56N 35°51' E 014°36'0 0.0
2017-May-25 04:29N 35°51' E 014°36'0 0.0
2017-May-25 03:38N 35°51' E 014°36'0 0.0
2017-May-25 02:44N 35°51' E 014°36'0 0.0
2017-May-25 02:23N 35°51' E 014°36'0 0.0
2017-May-25 01:35N 35°51' E 014°36'0 0.1
2017-May-25 01:29N 35°51' E 014°36'0 0.0
2017-May-25 00:59N 35°51' E 014°36'0 0.0
2017-May-25 00:29N 35°51' E 014°36'0 0.0
2017-May-24 23:59N 35°51' E 014°36'0 0.1
2017-May-24 23:11N 35°51' E 014°36'0 1.4
2017-May-24 22:56N 35°50' E 014°36'0 0.0
2017-May-24 22:23N 35°50' E 014°36'0 0.0
2017-May-24 21:59N 35°50' E 014°36'0 0.0
2017-May-24 21:26N 35°50' E 014°36'0 0.0
2017-May-24 20:32N 35°50' E 014°36'0 0.1
2017-May-24 19:52N 35°50' E 014°36'2 5.6
2017-May-24 19:30N 35°52' E 014°35'4 0.5
2017-May-24 12:12N 35°54' E 014°31'1 5.8
2017-May-24 12:01N 35°54' E 014°32'1 1.7
2017-May-24 11:30N 35°54' E 014°33'1 2.3
2017-May-24 11:00N 35°53' E 014°35'3 2.4
2017-May-24 09:48N 35°50' E 014°36'0 0.1
2017-May-24 09:09N 35°51' E 014°36'0 0.0
2017-May-24 09:00N 35°51' E 014°36'0 0.1
2017-May-24 08:15N 35°51' E 014°36'0 0.1
2017-May-24 07:27N 35°51' E 014°36'3 5.6
2017-May-24 07:00N 35°50' E 014°39'3 6.7
2017-May-24 06:30N 35°51' E 014°43'4 6.9
2017-May-24 05:52N 35°54' E 014°47'1 2.1
2017-May-24 05:30N 35°55' E 014°48'0 0.1
2017-May-24 04:42N 35°55' E 014°48'0 0.1
2017-May-24 04:27N 35°55' E 014°48'0 0.0
2017-May-24 03:03N 35°55' E 014°48'0 0.1
2017-May-24 02:54N 35°55' E 014°48'0 0.0
2017-May-24 02:00N 35°55' E 014°48'0 0.0
2017-May-24 01:27N 35°55' E 014°48'0 0.0
2017-May-24 00:57N 35°55' E 014°48'1 0.6
2017-May-23 23:22N 35°54' E 014°47'2 1.0
2017-May-23 21:49N 35°54' E 014°45'0 0.7
2017-May-23 21:29N 35°54' E 014°44'3 6.3
2017-May-23 21:00N 35°51' E 014°42'4 7.0
2017-May-23 20:30N 35°50' E 014°39'5 0.6
2017-May-23 12:34N 35°49' E 014°33'0 0.0
2017-May-23 12:13N 35°49' E 014°33'0 0.0
2017-May-23 11:58N 35°49' E 014°33'0 0.0
2017-May-23 11:28N 35°49' E 014°33'0 0.0
2017-May-23 10:58N 35°49' E 014°33'0 0.0
2017-May-23 08:55N 35°49' E 014°33'0 0.0
2017-May-23 08:25N 35°49' E 014°33'0 0.0
2017-May-23 07:58N 35°49' E 014°33'0 0.0
2017-May-23 07:04N 35°49' E 014°33'0 0.0
2017-May-23 06:34N 35°49' E 014°33'0 0.1
2017-May-23 06:28N 35°49' E 014°33'0 0.3
2017-May-23 05:28N 35°49' E 014°33'1 1.7
2017-May-23 04:49N 35°49' E 014°34'0 0.6
2017-May-23 04:31N 35°49' E 014°34'0 0.3
2017-May-23 04:00N 35°49' E 014°34'1 1.4
2017-May-23 03:29N 35°49' E 014°35'0 0.0
2017-May-23 02:59N 35°49' E 014°35'0 0.1
2017-May-23 02:29N 35°49' E 014°35'0 0.0
2017-May-23 01:59N 35°49' E 014°35'0 0.0
2017-May-23 01:26N 35°49' E 014°35'0 0.0
2017-May-23 00:47N 35°49' E 014°35'0 0.0
2017-May-23 00:29N 35°49' E 014°35'0 0.1
2017-May-22 23:59N 35°49' E 014°35'0 0.0
2017-May-22 23:26N 35°49' E 014°35'0 0.0
2017-May-22 22:56N 35°49' E 014°35'0 0.0
2017-May-22 22:29N 35°49' E 014°35'0 0.0
2017-May-22 21:53N 35°49' E 014°35'0 0.0
2017-May-22 21:29N 35°49' E 014°35'0 0.0
2017-May-22 20:59N 35°49' E 014°35'0 0.0
2017-May-22 20:29N 35°49' E 014°35'0 0.0
2017-May-22 19:59N 35°49' E 014°35'1 2.8
2017-May-22 19:30N 35°49' E 014°36'4 8.4
2017-May-22 19:00N 35°50' E 014°41'4 6.2
2017-May-22 18:26N 35°53' E 014°45'0 0.0
2017-May-22 17:59N 35°53' E 014°45'0 0.0
2017-May-22 17:29N 35°53' E 014°45'0 0.0
2017-May-22 16:59N 35°53' E 014°45'0 0.3
2017-May-22 16:30N 35°53' E 014°45'1 2.2
2017-May-22 16:00N 35°52' E 014°44'4 7.6
2017-May-22 15:30N 35°50' E 014°40'4 7.6
2017-May-22 15:00N 35°49' E 014°36'1 0.6
2017-May-22 13:59N 35°49' E 014°35'0 0.0
2017-May-22 13:29N 35°49' E 014°35'0 0.0
2017-May-22 12:02N 35°49' E 014°35'0 0.0
2017-May-22 11:44N 35°49' E 014°35'1 0.0
2017-May-21 21:14N 35°49' E 014°36'1 0.3
2017-May-21 18:06N 35°49' E 014°37'0 0.0
2017-May-21 15:48N 35°49' E 014°37'0 0.0
2017-May-21 15:27N 35°49' E 014°37'0 0.0
2017-May-21 12:15N 35°49' E 014°37'0 0.0
2017-May-21 11:51N 35°49' E 014°37'0 0.1
2017-May-21 11:25N 35°49' E 014°37'2 4.2
2017-May-21 11:00N 35°49' E 014°39'3 6.4
2017-May-21 10:30N 35°51' E 014°42'2 0.3
2017-May-21 02:42N 35°52' E 014°45'1 1.0
2017-May-21 01:42N 35°51' E 014°45'1 2.5
2017-May-21 01:24N 35°51' E 014°45'3 4.6
2017-May-21 00:51N 35°50' E 014°42'6 1.0
2017-May-20 19:05N 35°49' E 014°35'0 0.2
2017-May-20 18:59N 35°49' E 014°35'0 0.0
2017-May-20 18:23N 35°49' E 014°35'0 0.0
2017-May-20 17:59N 35°49' E 014°35'0 0.0
2017-May-20 17:29N 35°49' E 014°35'0 0.0
2017-May-20 16:59N 35°49' E 014°35'0 0.0
2017-May-20 16:11N 35°49' E 014°35'0 0.1
2017-May-20 15:56N 35°49' E 014°35'0 0.0
2017-May-20 15:05N 35°49' E 014°35'0 0.0
2017-May-20 14:59N 35°49' E 014°35'0 0.0
2017-May-20 14:29N 35°49' E 014°35'0 0.0
2017-May-20 13:15N 35°49' E 014°35'0 1.1
2017-May-20 12:48N 35°49' E 014°36'0 0.0
2017-May-20 12:27N 35°49' E 014°36'0 0.0
2017-May-20 11:57N 35°49' E 014°36'0 0.0
2017-May-20 08:57N 35°49' E 014°36'1 0.0
2017-May-19 19:54N 35°49' E 014°35'0 0.0
2017-May-19 17:06N 35°49' E 014°35'0 2.8
2017-May-19 17:00N 35°49' E 014°35'2 0.3
2017-May-19 10:10N 35°49' E 014°32'0 0.1
2017-May-19 09:58N 35°49' E 014°32'0 0.0
2017-May-18 16:53N 35°49' E 014°33'2 2.0
2017-May-18 16:07N 35°49' E 014°35'0 0.8
2017-May-18 15:43N 35°49' E 014°35'0 1.1
2017-May-18 15:28N 35°49' E 014°36'1 2.7
2017-May-18 14:56N 35°49' E 014°37'4 4.7
2017-May-18 14:00N 35°51' E 014°42'2 3.8
2017-May-18 13:26N 35°52' E 014°45'0 0.0
2017-May-18 12:56N 35°52' E 014°45'0 0.0
2017-May-18 12:29N 35°52' E 014°45'0 0.0
2017-May-18 11:53N 35°52' E 014°45'1 2.2
2017-May-18 11:30N 35°51' E 014°44'4 7.5
2017-May-18 10:56N 35°50' E 014°39'3 7.7
2017-May-18 10:30N 35°49' E 014°35'0 0.5
2017-May-18 09:56N 35°49' E 014°35'0 0.0
2017-May-18 09:26N 35°49' E 014°35'0 0.0
2017-May-18 08:53N 35°49' E 014°35'0 0.0
2017-May-18 08:23N 35°49' E 014°35'0 0.0
2017-May-18 07:11N 35°49' E 014°35'0 0.0
2017-May-18 06:59N 35°49' E 014°35'0 0.0
2017-May-18 06:29N 35°49' E 014°35'0 0.2
2017-May-18 05:57N 35°49' E 014°35'2 5.2
2017-May-18 05:30N 35°50' E 014°38'4 7.3
2017-May-18 05:00N 35°51' E 014°42'4 7.5
2017-May-18 04:30N 35°53' E 014°46'1 1.9
2017-May-18 04:00N 35°53' E 014°47'0 0.1
2017-May-18 03:30N 35°53' E 014°47'0 0.1
2017-May-18 03:00N 35°53' E 014°47'0 0.2
2017-May-18 02:30N 35°54' E 014°47'0 0.0
2017-May-18 02:00N 35°54' E 014°47'0 0.0
2017-May-18 01:30N 35°54' E 014°47'0 0.0
2017-May-18 00:57N 35°54' E 014°47'0 0.0
2017-May-18 00:30N 35°54' E 014°47'1 1.1
2017-May-17 23:59N 35°53' E 014°46'0 0.1
2017-May-17 23:23N 35°53' E 014°46'0 0.0
2017-May-17 22:59N 35°53' E 014°46'0 0.0
2017-May-17 22:29N 35°53' E 014°46'0 0.1
2017-May-17 21:59N 35°53' E 014°46'0 0.0
2017-May-17 21:29N 35°53' E 014°46'0 0.0
2017-May-17 20:59N 35°53' E 014°46'0 0.0
2017-May-17 20:26N 35°53' E 014°46'0 0.0
2017-May-17 19:59N 35°53' E 014°46'0 0.0
2017-May-17 19:29N 35°53' E 014°46'0 0.0
2017-May-17 18:59N 35°53' E 014°46'0 0.0
2017-May-17 18:29N 35°53' E 014°46'0 0.0
2017-May-17 17:59N 35°53' E 014°46'0 0.1
2017-May-17 17:29N 35°53' E 014°46'0 0.2
2017-May-17 16:50N 35°53' E 014°46'0 0.0
2017-May-17 16:29N 35°53' E 014°46'0 0.0
2017-May-17 14:50N 35°53' E 014°46'0 0.0
2017-May-17 14:29N 35°53' E 014°46'2 1.9
2017-May-17 13:29N 35°54' E 014°48'0 0.0
2017-May-17 12:59N 35°54' E 014°48'0 0.0
2017-May-17 12:29N 35°54' E 014°48'0 0.0
2017-May-17 11:53N 35°54' E 014°48'0 0.0
2017-May-17 11:29N 35°54' E 014°48'0 0.1
2017-May-17 10:20N 35°54' E 014°48'0 0.1
2017-May-17 09:59N 35°54' E 014°48'0 0.0
2017-May-17 09:29N 35°54' E 014°48'0 0.0
2017-May-17 08:59N 35°55' E 014°48'0 0.0
2017-May-17 08:23N 35°55' E 014°48'0 0.0
2017-May-17 07:59N 35°55' E 014°48'0 0.0
2017-May-17 06:50N 35°55' E 014°48'0 0.0
2017-May-17 06:17N 35°55' E 014°48'0 0.0
2017-May-17 04:28N 35°54' E 014°48'2 3.4
2017-May-17 04:00N 35°55' E 014°46'3 5.5
2017-May-17 03:30N 35°54' E 014°43'4 7.3
2017-May-17 03:00N 35°54' E 014°38'4 7.3
2017-May-17 02:30N 35°54' E 014°34'2 0.2
2017-May-16 19:07N 35°54' E 014°32'1 6.8
2017-May-16 19:00N 35°54' E 014°33'1 2.3
2017-May-16 18:30N 35°54' E 014°34'3 6.0
2017-May-16 18:00N 35°51' E 014°36'4 0.2
2017-May-16 00:17N 35°49' E 014°32'0 0.0
2017-May-15 23:59N 35°49' E 014°32'0 0.0
2017-May-15 22:47N 35°49' E 014°32'0 0.0
2017-May-15 22:29N 35°49' E 014°32'0 0.0
2017-May-15 21:56N 35°49' E 014°32'0 0.0
2017-May-15 21:29N 35°49' E 014°32'2 4.6
2017-May-15 21:00N 35°49' E 014°35'4 7.6
2017-May-15 20:31N 35°50' E 014°39'4 7.6
2017-May-15 20:00N 35°52' E 014°43'2 2.6
2017-May-15 19:25N 35°53' E 014°45'0 0.0
2017-May-15 18:58N 35°53' E 014°45'0 0.2
2017-May-15 18:28N 35°53' E 014°45'1 2.2
2017-May-15 18:00N 35°52' E 014°44'  

Dump ship's entire track history